createdAt,value
2022-09-10T00:01:29.939Z,97961.81
2022-09-10T00:03:56.738Z,97955.16
2022-09-10T00:06:27.000Z,97961.25
2022-09-10T00:08:59.015Z,97956.19
2022-09-10T00:11:31.914Z,97950.50
2022-09-10T00:14:04.626Z,97957.59
2022-09-10T00:16:32.591Z,97957.97
2022-09-10T00:19:01.262Z,97959.38
2022-09-10T00:21:29.824Z,97951.06
2022-09-10T00:23:57.929Z,97947.03
2022-09-10T00:26:29.636Z,97951.75
2022-09-10T00:29:01.208Z,97948.81
2022-09-10T00:31:30.399Z,97951.19
2022-09-10T00:33:59.326Z,97954.41
2022-09-10T00:36:29.990Z,97956.13
2022-09-10T00:39:05.197Z,97956.94
2022-09-10T00:41:37.475Z,97957.03
2022-09-10T00:44:41.215Z,97951.44
2022-09-10T00:47:22.069Z,97935.59
2022-09-10T00:50:00.703Z,97930.50
2022-09-10T00:52:29.250Z,97937.53
2022-09-10T00:54:57.327Z,97930.22
2022-09-10T00:57:28.490Z,97929.31
2022-09-10T01:00:03.912Z,97934.59
2022-09-10T01:02:30.564Z,97927.03
2022-09-10T01:05:00.741Z,97927.16
2022-09-10T01:07:30.194Z,97930.72
2022-09-10T01:10:02.297Z,97926.97
2022-09-10T01:13:11.732Z,97919.50
2022-09-10T01:15:54.360Z,97924.22
2022-09-10T01:18:49.529Z,97920.78
2022-09-10T01:21:42.772Z,97912.97
2022-09-10T01:24:52.386Z,97918.25
2022-09-10T01:27:40.227Z,97920.78
2022-09-10T01:30:41.316Z,97921.09
2022-09-10T01:33:15.393Z,97919.84
2022-09-10T01:35:46.645Z,97921.47
2022-09-10T01:38:22.847Z,97910.91
2022-09-10T01:40:50.854Z,97915.25
2022-09-10T01:43:17.514Z,97917.47
2022-09-10T01:46:03.152Z,97915.81
2022-09-10T01:48:47.782Z,97913.91
2022-09-10T01:51:31.812Z,97923.88
2022-09-10T01:54:45.510Z,97921.03
2022-09-10T01:57:42.792Z,97924.69
2022-09-10T02:00:14.591Z,97925.84
2022-09-10T02:03:06.085Z,97918.47
2022-09-10T02:05:37.205Z,97910.34
2022-09-10T02:08:13.265Z,97904.25
2022-09-10T02:11:06.069Z,97905.38
2022-09-10T02:13:34.468Z,97898.06
2022-09-10T02:16:06.172Z,97908.94
2022-09-10T02:18:33.898Z,97902.84
2022-09-10T02:21:03.196Z,97910.78
2022-09-10T02:23:42.532Z,97911.94
2022-09-10T02:26:09.477Z,97894.69
2022-09-10T02:28:37.559Z,97902.06
2022-09-10T02:31:04.896Z,97900.69
2022-09-10T02:33:31.504Z,97907.81
2022-09-10T02:35:58.611Z,97908.13
2022-09-10T02:38:29.191Z,97908.38
2022-09-10T02:40:59.184Z,97911.81
2022-09-10T02:43:27.905Z,97915.03
2022-09-10T02:45:59.175Z,97920.78
2022-09-10T02:48:27.859Z,97918.13
2022-09-10T02:50:54.622Z,97922.81
2022-09-10T02:53:21.810Z,97926.31
2022-09-10T02:55:49.131Z,97918.94
2022-09-10T02:58:16.758Z,97928.69
2022-09-10T03:00:47.578Z,97925.59
2022-09-10T03:03:14.796Z,97918.34
2022-09-10T03:05:41.616Z,97918.94
2022-09-10T03:08:09.617Z,97913.06
2022-09-10T03:10:39.288Z,97920.78
2022-09-10T03:13:06.364Z,97933.84
2022-09-10T03:15:32.971Z,97927.53
2022-09-10T03:17:59.754Z,97918.81
2022-09-10T03:20:27.256Z,97918.44
2022-09-10T03:22:53.855Z,97919.25
2022-09-10T03:25:20.574Z,97923.06
2022-09-10T03:27:47.151Z,97913.66
2022-09-10T03:30:13.742Z,97908.69
2022-09-10T03:32:40.599Z,97909.72
2022-09-10T03:35:08.060Z,97912.59
2022-09-10T03:37:34.604Z,97914.78
2022-09-10T03:40:01.324Z,97912.59
2022-09-10T03:42:27.896Z,97916.41
2022-09-10T03:44:56.252Z,97921.31
2022-09-10T03:47:22.861Z,97919.56
2022-09-10T03:49:50.722Z,97916.59
2022-09-10T03:52:18.421Z,97910.38
2022-09-10T03:54:50.007Z,97915.66
2022-09-10T03:57:16.861Z,97913.13
2022-09-10T03:59:43.490Z,97903.84
2022-09-10T04:02:10.082Z,97916.81
2022-09-10T04:04:39.393Z,97913.13
2022-09-10T04:07:06.140Z,97914.28
2022-09-10T04:09:34.021Z,97913.50
2022-09-10T04:12:00.634Z,97912.00
2022-09-10T04:14:27.280Z,97908.22
2022-09-10T04:16:54.217Z,97912.47
2022-09-10T04:19:20.953Z,97912.00
2022-09-10T04:21:48.296Z,97914.66
2022-09-10T04:24:15.206Z,97909.34
2022-09-10T04:26:41.850Z,97918.09
2022-09-10T04:29:08.825Z,97913.59
2022-09-10T04:31:35.498Z,97914.66
2022-09-10T04:34:02.165Z,97909.91
2022-09-10T04:36:29.440Z,97916.25
2022-09-10T04:38:56.110Z,97914.19
2022-09-10T04:41:23.260Z,97919.81
2022-09-10T04:43:49.830Z,97911.91
2022-09-10T04:46:17.832Z,97920.03
2022-09-10T04:48:44.620Z,97921.88
2022-09-10T04:51:17.523Z,97927.84
2022-09-10T04:53:45.990Z,97922.88
2022-09-10T04:56:13.023Z,97926.91
2022-09-10T04:58:41.056Z,97929.44
2022-09-10T05:01:08.571Z,97926.84
2022-09-10T05:03:35.694Z,97924.75
2022-09-10T05:06:03.419Z,97929.44
2022-09-10T05:08:30.093Z,97929.44
2022-09-10T05:10:58.752Z,97930.25
2022-09-10T05:13:25.438Z,97932.91
2022-09-10T05:15:51.962Z,97938.06
2022-09-10T05:18:18.489Z,97935.78
2022-09-10T05:20:45.500Z,97936.78
2022-09-10T05:23:12.513Z,97937.97
2022-09-10T05:25:39.138Z,97941.78
2022-09-10T05:28:05.877Z,97946.00
2022-09-10T05:30:32.813Z,97945.09
2022-09-10T05:33:03.146Z,97948.41
2022-09-10T05:35:30.243Z,97952.22
2022-09-10T05:37:58.289Z,97949.94
2022-09-10T05:40:25.443Z,97952.91
2022-09-10T05:42:52.958Z,97949.22
2022-09-10T05:45:20.444Z,97957.88
2022-09-10T05:47:47.683Z,97955.09
2022-09-10T05:50:14.547Z,97950.63
2022-09-10T05:52:41.156Z,97957.50
2022-09-10T05:55:08.408Z,97946.00
2022-09-10T05:57:35.496Z,97954.63
2022-09-10T06:00:06.876Z,97955.22
2022-09-10T06:02:33.697Z,97955.44
2022-09-10T06:05:00.696Z,97955.66
2022-09-10T06:07:30.400Z,97955.41
2022-09-10T06:09:57.633Z,97963.44
2022-09-10T06:12:24.327Z,97953.53
2022-09-10T06:14:50.939Z,97965.03
2022-09-10T06:17:17.697Z,97959.50
2022-09-10T06:19:48.104Z,97958.25
2022-09-10T06:22:16.942Z,97958.34
2022-09-10T06:24:43.761Z,97960.53
2022-09-10T06:27:10.306Z,97962.13
2022-09-10T06:29:36.894Z,97960.97
2022-09-10T06:32:04.547Z,97968.00
2022-09-10T06:34:31.536Z,97962.72
2022-09-10T06:36:58.383Z,97969.56
2022-09-10T06:39:25.050Z,97958.66
2022-09-10T06:41:53.939Z,97968.19
2022-09-10T06:44:22.187Z,97968.09
2022-09-10T06:49:36.469Z,97972.44
2022-09-10T06:52:03.666Z,97970.28
2022-09-10T06:54:31.931Z,97968.00
2022-09-10T06:56:58.948Z,97969.13
2022-09-10T06:59:25.976Z,97972.13
2022-09-10T07:01:52.597Z,97973.28
2022-09-10T07:04:19.317Z,97974.88
2022-09-10T07:06:47.515Z,97980.84
2022-09-10T07:09:14.707Z,97973.59
2022-09-10T07:11:41.902Z,97971.72
2022-09-10T07:14:13.773Z,97973.38
2022-09-10T07:16:44.584Z,97975.41
2022-09-10T07:19:17.352Z,97970.03
2022-09-10T07:21:44.785Z,97975.44
2022-09-10T07:24:12.626Z,97978.91
2022-09-10T07:26:39.499Z,97975.88
2022-09-10T07:29:06.891Z,97980.22
2022-09-10T07:31:37.138Z,97979.78
2022-09-10T07:34:04.815Z,97989.81
2022-09-10T07:36:32.695Z,97978.66
2022-09-10T07:39:03.423Z,97986.59
2022-09-10T07:41:34.713Z,97993.25
2022-09-10T07:44:01.582Z,97993.59
2022-09-10T07:46:28.485Z,97996.72
2022-09-10T07:48:58.163Z,97987.97
2022-09-10T07:51:29.111Z,97996.28
2022-09-10T07:53:59.005Z,97999.97
2022-09-10T07:56:26.207Z,98000.88
2022-09-10T07:58:56.933Z,98002.59
2022-09-10T08:01:23.813Z,98003.16
2022-09-10T08:03:50.393Z,98012.78
2022-09-10T08:06:17.261Z,98013.16
2022-09-10T08:08:43.983Z,98014.19
2022-09-10T08:11:16.593Z,98016.94
2022-09-10T08:13:47.499Z,98019.03
2022-09-10T08:16:16.915Z,98018.09
2022-09-10T08:18:43.756Z,98021.31
2022-09-10T08:21:11.225Z,98013.75
2022-09-10T08:23:41.230Z,98025.72
2022-09-10T08:26:08.826Z,98019.03
2022-09-10T08:28:36.615Z,98031.31
2022-09-10T08:31:08.798Z,98030.56
2022-09-10T08:33:41.802Z,98024.81
2022-09-10T08:36:12.371Z,98035.72
2022-09-10T08:38:41.866Z,98029.34
2022-09-10T08:41:52.753Z,98027.06
2022-09-10T08:44:29.958Z,98038.16
2022-09-10T08:47:00.431Z,98030.25
2022-09-10T08:49:52.982Z,98043.16
2022-09-10T08:52:42.028Z,98043.03
2022-09-10T08:55:18.280Z,98042.00
2022-09-10T08:58:20.900Z,98050.44
2022-09-10T09:00:55.856Z,98049.00
2022-09-10T09:03:35.518Z,98041.50
2022-09-10T09:06:07.909Z,98041.38
2022-09-10T09:08:48.667Z,98046.34
2022-09-10T09:12:07.695Z,98050.03
2022-09-10T09:15:12.401Z,98050.47
2022-09-10T09:18:29.864Z,98047.94
2022-09-10T09:21:16.543Z,98041.97
2022-09-10T09:24:12.772Z,98040.19
2022-09-10T09:26:47.503Z,98041.59
2022-09-10T09:29:44.112Z,98037.38
2022-09-10T09:32:16.366Z,98036.91
2022-09-10T09:34:55.088Z,98036.50
2022-09-10T09:37:31.371Z,98032.00
2022-09-10T09:40:30.479Z,98038.50
2022-09-10T09:43:09.692Z,98025.47
2022-09-10T09:45:43.909Z,98027.41
2022-09-10T09:48:16.011Z,98012.91
2022-09-10T09:50:47.934Z,98026.09
2022-09-10T09:53:27.256Z,98023.09
2022-09-10T09:56:22.334Z,98012.69
2022-09-10T09:58:51.014Z,98022.31
2022-09-10T10:01:27.707Z,98014.78
2022-09-10T10:04:02.723Z,98031.78
2022-09-10T10:06:34.602Z,98027.59
2022-09-10T10:09:28.914Z,98036.84
2022-09-10T10:11:57.859Z,98025.53
2022-09-10T10:14:32.294Z,98023.63
2022-09-10T10:17:01.244Z,98027.66
2022-09-10T10:19:35.175Z,98029.28
2022-09-10T10:22:26.297Z,98030.66
2022-09-10T10:24:54.466Z,98024.19
2022-09-10T10:27:38.057Z,98036.66
2022-09-10T10:30:16.777Z,98040.56
2022-09-10T10:33:09.990Z,98038.66
2022-09-10T10:36:10.063Z,98038.69
2022-09-10T10:38:42.999Z,98036.84
2022-09-10T10:41:30.745Z,98039.75
2022-09-10T10:44:32.285Z,98040.53
2022-09-10T10:47:15.346Z,98030.06
2022-09-10T10:50:09.856Z,98031.34
2022-09-10T10:53:07.161Z,98039.50
2022-09-10T10:55:52.658Z,98029.50
2022-09-10T10:58:29.282Z,98030.53
2022-09-10T11:01:07.621Z,98013.19
2022-09-10T11:03:52.789Z,98013.97
2022-09-10T11:06:31.832Z,98005.06
2022-09-10T11:09:08.005Z,98008.28
2022-09-10T11:12:27.158Z,98011.06
2022-09-10T11:15:16.490Z,98010.72
2022-09-10T11:17:55.563Z,98003.53
2022-09-10T11:20:34.316Z,98004.41
2022-09-10T11:23:25.104Z,98006.06
2022-09-10T11:26:04.709Z,98001.38
2022-09-10T11:28:43.564Z,97999.00
2022-09-10T11:31:35.385Z,97993.09
2022-09-10T11:34:44.289Z,97989.75
2022-09-10T11:37:20.420Z,97995.09
2022-09-10T11:39:53.149Z,97993.03
2022-09-10T11:42:30.315Z,97995.00
2022-09-10T11:45:25.066Z,97989.78
2022-09-10T11:48:30.184Z,97984.28
2022-09-10T11:51:17.657Z,97988.94
2022-09-10T11:53:45.226Z,97984.44
2022-09-10T11:56:55.660Z,97975.78
2022-09-10T12:00:17.565Z,97967.31
2022-09-10T12:03:22.267Z,97970.06
2022-09-10T12:06:13.928Z,97965.31
2022-09-10T12:09:21.538Z,97967.81
2022-09-10T12:11:56.231Z,97960.88
2022-09-10T12:14:23.400Z,97960.06
2022-09-10T12:17:03.603Z,97972.94
2022-09-10T12:19:48.791Z,97959.66
2022-09-10T12:22:40.230Z,97961.22
2022-09-10T12:25:25.194Z,97971.38
2022-09-10T12:28:08.078Z,97955.28
2022-09-10T12:30:37.720Z,97955.69
2022-09-10T12:33:27.877Z,97957.16
2022-09-10T12:35:54.534Z,97959.06
2022-09-10T12:39:18.113Z,97963.56
2022-09-10T12:41:44.959Z,97956.59
2022-09-10T12:44:46.002Z,97954.47
2022-09-10T12:47:15.184Z,97942.00
2022-09-10T12:49:57.150Z,97944.09
2022-09-10T12:53:13.204Z,97935.94
2022-09-10T12:56:02.070Z,97932.38
2022-09-10T12:58:39.567Z,97929.59
2022-09-10T13:01:25.729Z,97936.84
2022-09-10T13:03:58.558Z,97919.34
2022-09-10T13:06:40.189Z,97916.69
2022-09-10T13:09:25.524Z,97918.06
2022-09-10T13:11:57.032Z,97912.19
2022-09-10T13:14:40.192Z,97907.94
2022-09-10T13:17:06.868Z,97912.72
2022-09-10T13:19:33.378Z,97911.91
2022-09-10T13:21:59.992Z,97902.03
2022-09-10T13:24:36.309Z,97907.59
2022-09-10T13:27:22.677Z,97901.44
2022-09-10T13:30:23.405Z,97899.63
2022-09-10T13:33:04.574Z,97905.19
2022-09-10T13:36:19.327Z,97891.63
2022-09-10T13:39:12.261Z,97899.63
2022-09-10T13:42:19.472Z,97903.09
2022-09-10T13:45:14.740Z,97901.31
2022-09-10T13:47:51.299Z,97900.53
2022-09-10T13:50:33.142Z,97910.84
2022-09-10T13:53:05.742Z,97878.47
2022-09-10T13:55:34.674Z,97892.84
2022-09-10T13:58:14.108Z,97890.44
2022-09-10T14:00:56.019Z,97887.78
2022-09-10T14:03:35.977Z,97894.41
2022-09-10T14:06:07.859Z,97894.06
2022-09-10T14:08:44.917Z,97889.31
2022-09-10T14:11:14.042Z,97894.41
2022-09-10T14:13:54.312Z,97886.22
2022-09-10T14:16:31.991Z,97885.28
2022-09-10T14:19:04.101Z,97893.78
2022-09-10T14:21:32.038Z,97896.72
2022-09-10T14:24:00.153Z,97898.03
2022-09-10T14:26:33.695Z,97895.88
2022-09-10T14:29:22.141Z,97911.00
2022-09-10T14:31:50.016Z,97907.50
2022-09-10T14:34:36.288Z,97905.09
2022-09-10T14:37:39.489Z,97913.31
2022-09-10T14:40:18.382Z,97908.69
2022-09-10T14:42:50.498Z,97909.44
2022-09-10T14:45:46.158Z,97914.94
2022-09-10T14:48:36.922Z,97913.56
2022-09-10T14:51:21.891Z,97908.19
2022-09-10T14:53:55.615Z,97903.44
2022-09-10T14:56:30.528Z,97893.91
2022-09-10T14:59:13.476Z,97900.25
2022-09-10T15:01:48.283Z,97904.41
2022-09-10T15:04:19.212Z,97893.22
2022-09-10T15:06:45.675Z,97898.75
2022-09-10T15:09:15.410Z,97895.72
2022-09-10T15:12:03.426Z,97896.22
2022-09-10T15:14:32.396Z,97907.59
2022-09-10T15:16:59.412Z,97906.81
2022-09-10T15:19:26.380Z,97908.66
2022-09-10T15:21:52.859Z,97916.78
2022-09-10T15:24:22.836Z,97919.66
2022-09-10T15:26:50.270Z,97906.69
2022-09-10T15:29:17.935Z,97919.63
2022-09-10T15:31:45.163Z,97914.13
2022-09-10T15:34:11.992Z,97916.78
2022-09-10T15:36:41.078Z,97919.22
2022-09-10T15:39:12.547Z,97915.47
2022-09-10T15:41:44.056Z,97919.72
2022-09-10T15:44:12.213Z,97907.44
2022-09-10T15:46:45.331Z,97910.06
2022-09-10T15:49:12.220Z,97911.84
2022-09-10T15:51:39.503Z,97906.34
2022-09-10T15:54:06.824Z,97907.38
2022-09-10T15:56:36.717Z,97904.16
2022-09-10T15:59:05.879Z,97896.19
2022-09-10T16:01:35.375Z,97903.13
2022-09-10T16:04:02.889Z,97914.00
2022-09-10T16:06:34.783Z,97914.06
2022-09-10T16:09:06.137Z,97912.91
2022-09-10T16:11:37.714Z,97908.13
2022-09-10T16:14:08.103Z,97909.91
2022-09-10T16:16:37.194Z,97913.31
2022-09-10T16:19:05.744Z,97913.00
2022-09-10T16:21:36.648Z,97911.16
2022-09-10T16:24:05.870Z,97912.72
2022-09-10T16:26:40.548Z,97916.22
2022-09-10T16:29:14.438Z,97912.78
2022-09-10T16:31:43.445Z,97912.31
2022-09-10T16:34:13.478Z,97904.09
2022-09-10T16:36:40.482Z,97901.50
2022-09-10T16:39:12.549Z,97913.00
2022-09-10T16:41:42.778Z,97907.66
2022-09-10T16:44:11.166Z,97909.78
2022-09-10T16:46:38.829Z,97914.69
2022-09-10T16:49:06.147Z,97938.34
2022-09-10T16:51:35.582Z,97924.69
2022-09-10T16:54:05.964Z,97913.84
2022-09-10T16:56:45.868Z,97920.91
2022-09-10T16:59:22.839Z,97919.59
2022-09-10T17:01:51.683Z,97927.22
2022-09-10T17:04:28.341Z,97932.88
2022-09-10T17:06:57.330Z,97944.59
2022-09-10T17:09:24.942Z,97939.91
2022-09-10T17:11:52.147Z,97938.38
2022-09-10T17:14:19.596Z,97933.31
2022-09-10T17:16:48.787Z,97948.00
2022-09-10T17:19:27.427Z,97949.06
2022-09-10T17:21:56.851Z,97934.03
2022-09-10T17:24:26.861Z,97933.91
2022-09-10T17:26:58.217Z,97941.47
2022-09-10T17:29:26.630Z,97946.44
2022-09-10T17:31:55.525Z,97961.66
2022-09-10T17:34:24.322Z,97938.09
2022-09-10T17:36:51.584Z,97946.28
2022-09-10T17:39:19.144Z,97955.25
2022-09-10T17:41:45.923Z,97944.25
2022-09-10T17:44:13.753Z,97941.78
2022-09-10T17:46:41.385Z,97952.19
2022-09-10T17:49:08.245Z,97961.50
2022-09-10T17:51:35.250Z,97956.34
2022-09-10T17:54:05.265Z,97967.03
2022-09-10T17:56:32.383Z,97960.38
2022-09-10T17:59:02.709Z,97963.59
2022-09-10T18:01:36.135Z,97965.84
2022-09-10T18:04:04.290Z,97978.03
2022-09-10T18:06:36.340Z,97980.97
2022-09-10T18:09:04.703Z,97972.66
2022-09-10T18:11:35.576Z,97980.09
2022-09-10T18:14:03.137Z,97978.91
2022-09-10T18:16:32.895Z,97966.72
2022-09-10T18:19:13.816Z,97966.91
2022-09-10T18:21:42.322Z,97978.91
2022-09-10T18:24:24.083Z,97976.94
2022-09-10T18:26:57.394Z,97967.88
2022-09-10T18:29:29.795Z,97988.09
2022-09-10T18:32:01.329Z,97980.41
2022-09-10T18:34:30.896Z,97976.31
2022-09-10T18:37:01.660Z,97980.56
2022-09-10T18:39:31.117Z,97992.59
2022-09-10T18:42:00.878Z,97982.50
2022-09-10T18:44:33.300Z,97978.47
2022-09-10T18:47:00.769Z,97999.16
2022-09-10T18:49:27.400Z,97993.06
2022-09-10T18:51:56.632Z,97997.22
2022-09-10T18:54:25.231Z,97987.59
2022-09-10T18:56:52.747Z,97995.44
2022-09-10T18:59:23.036Z,97993.59
2022-09-10T19:01:53.853Z,97997.38
2022-09-10T19:04:25.937Z,98002.41
2022-09-10T19:06:55.180Z,97998.50
2022-09-10T19:09:33.867Z,98002.66
2022-09-10T19:12:01.667Z,97993.38
2022-09-10T19:14:35.699Z,97997.13
2022-09-10T19:17:03.487Z,97997.53
2022-09-10T19:19:34.889Z,97974.09
2022-09-10T19:22:07.016Z,98003.38
2022-09-10T19:24:54.027Z,98003.75
2022-09-10T19:27:22.221Z,98003.50
2022-09-10T19:29:50.173Z,97998.13
2022-09-10T19:32:19.509Z,97999.59
2022-09-10T19:34:49.699Z,98012.59
2022-09-10T19:37:17.100Z,98009.03
2022-09-10T19:39:44.499Z,98010.63
2022-09-10T19:42:12.492Z,98015.47
2022-09-10T19:44:39.374Z,98006.28
2022-09-10T19:47:06.123Z,98010.63
2022-09-10T19:49:34.093Z,98029.97
2022-09-10T19:52:00.820Z,98017.88
2022-09-10T19:54:28.572Z,98028.31
2022-09-10T19:56:56.280Z,98030.41
2022-09-10T19:59:23.089Z,98037.84
2022-09-10T20:01:49.900Z,98028.13
2022-09-10T20:04:16.972Z,98033.75
2022-09-10T20:06:45.864Z,98021.00
2022-09-10T20:09:12.653Z,98038.97
2022-09-10T20:11:52.799Z,98033.59
2022-09-10T20:14:20.162Z,98037.66
2022-09-10T20:16:46.720Z,98029.59
2022-09-10T20:19:18.422Z,98050.25
2022-09-10T20:21:47.390Z,98041.09
2022-09-10T20:24:14.670Z,98036.97
2022-09-10T20:26:43.654Z,98026.03
2022-09-10T20:29:13.879Z,98030.41
2022-09-10T20:31:43.534Z,98013.88
2022-09-10T20:34:17.821Z,98030.88
2022-09-10T20:36:45.030Z,98031.22
2022-09-10T20:39:14.874Z,98024.09
2022-09-10T20:41:42.923Z,98015.84
2022-09-10T20:44:14.387Z,98038.22
2022-09-10T20:46:41.766Z,98030.28
2022-09-10T20:49:11.461Z,98036.19
2022-09-10T20:51:40.403Z,98041.22
2022-09-10T20:54:11.754Z,98037.53
2022-09-10T20:56:39.575Z,98026.28
2022-09-10T20:59:06.331Z,98030.19
2022-09-10T21:01:33.584Z,98018.13
2022-09-10T21:04:04.102Z,98021.44
2022-09-10T21:06:34.428Z,98018.34
2022-09-10T21:09:02.746Z,98034.75
2022-09-10T21:11:49.328Z,98028.19
2022-09-10T21:14:17.202Z,98027.50
2022-09-10T21:16:45.247Z,98026.81
2022-09-10T21:19:16.156Z,98024.72
2022-09-10T21:21:44.987Z,98032.22
2022-09-10T21:24:22.473Z,98022.91
2022-09-10T21:26:50.652Z,98036.91
2022-09-10T21:29:20.287Z,98015.34
2022-09-10T21:31:49.980Z,98040.59
2022-09-10T21:34:17.536Z,98029.56
2022-09-10T21:36:45.177Z,98024.16
2022-09-10T21:39:15.790Z,98029.91
2022-09-10T21:41:49.305Z,98028.13
2022-09-10T21:44:22.964Z,98017.44
2022-09-10T21:46:51.102Z,98011.78
2022-09-10T21:49:19.183Z,98033.25
2022-09-10T21:51:46.267Z,98025.91
2022-09-10T21:54:18.532Z,98026.03
2022-09-10T21:56:45.571Z,98024.41
2022-09-10T21:59:13.258Z,98012.34
2022-09-10T22:01:43.912Z,98026.03
2022-09-10T22:04:12.018Z,98038.75
2022-09-10T22:06:39.531Z,98036.34
2022-09-10T22:09:10.359Z,98035.56
2022-09-10T22:11:46.955Z,98035.56
2022-09-10T22:14:18.141Z,98030.50
2022-09-10T22:16:45.608Z,98034.84
2022-09-10T22:19:18.021Z,98026.81
2022-09-10T22:21:45.456Z,98025.31
2022-09-10T22:24:14.678Z,98025.53
2022-09-10T22:26:44.426Z,98030.81
2022-09-10T22:29:12.854Z,98038.31
2022-09-10T22:31:39.850Z,98019.44
2022-09-10T22:34:11.082Z,98044.84
2022-09-10T22:36:41.047Z,98034.25
2022-09-10T22:39:13.403Z,98024.72
2022-09-10T22:41:41.619Z,98027.75
2022-09-10T22:44:09.537Z,98027.97
2022-09-10T22:46:38.052Z,98029.91
2022-09-10T22:49:06.704Z,98039.78
2022-09-10T22:51:39.845Z,98033.03
2022-09-10T22:54:08.345Z,98030.06
2022-09-10T22:56:35.860Z,98040.75
2022-09-10T22:59:04.105Z,98020.75
2022-09-10T23:01:36.631Z,98040.63
2022-09-10T23:04:05.732Z,98037.06
2022-09-10T23:06:35.399Z,98036.50
2022-09-10T23:09:13.674Z,98029.16
2022-09-10T23:11:41.735Z,98047.75
2022-09-10T23:14:15.514Z,98048.34
2022-09-10T23:16:48.277Z,98045.03
2022-09-10T23:19:19.723Z,98048.47
2022-09-10T23:21:49.894Z,98051.78
2022-09-10T23:24:19.720Z,98043.38
2022-09-10T23:26:46.644Z,98038.22
2022-09-10T23:29:15.633Z,98035.00
2022-09-10T23:31:42.326Z,98034.22
2022-09-10T23:34:16.635Z,98037.97
2022-09-10T23:36:46.230Z,98029.63
2022-09-10T23:39:19.714Z,98017.56
2022-09-10T23:41:52.053Z,98026.75
2022-09-10T23:44:19.661Z,98021.44
2022-09-10T23:46:46.501Z,98025.25
2022-09-10T23:49:13.243Z,98034.78
2022-09-10T23:51:40.053Z,98018.59
2022-09-10T23:54:07.022Z,98019.63
2022-09-10T23:56:33.673Z,98019.50
2022-09-10T23:59:00.761Z,98019.50
